Alis — FHQB — position and weather

sailwx.info

Track history (hours):
 
Tides and Currents Weather Stations Pressure Air Temp Water Temp Dewpoint Dewpoint Depression Visibility Wind Speed Wind Dir Waves Ship Positions

Oceanographic research ship Alis (France)

Detailed information on ship capabilities available from University of Delaware's Ocean Information Center.

Last reported at 2019-Oct-17 04:06 UTC. Time now 2019-Oct-17 17:39 UTC.
Position S 22°17' E 166°26'.

Length 27 m; beam 8 m.

Type: . MMSI: 227226000.

Date/timePositionNaut miles runAvg speedWind from/ knotsBaromVisibWave heightAir tempDewpointWater temp
2019-Oct-17 04:06S 22°17' E 166°26'0 0.0
2019-Oct-17 04:00S 22°17' E 166°26'0 0.0
2019-Oct-17 03:30S 22°17' E 166°26'0 0.0
2019-Oct-17 02:53S 22°17' E 166°26'0 0.0
2019-Oct-17 02:29S 22°17' E 166°26'0 0.0
2019-Oct-17 01:59S 22°17' E 166°26'0 0.0
2019-Oct-17 01:29S 22°17' E 166°26'0 0.0
2019-Oct-17 00:58S 22°17' E 166°26'0 0.0
2019-Oct-17 00:28S 22°17' E 166°26'0 0.0
2019-Oct-16 23:58S 22°17' E 166°26'0 0.0
2019-Oct-16 23:28S 22°17' E 166°26'0 0.0
2019-Oct-16 22:58S 22°17' E 166°26'0 0.0
2019-Oct-16 22:30S 22°17' E 166°26'0 0.0
2019-Oct-16 21:54S 22°17' E 166°26'0 0.0
2019-Oct-16 21:30S 22°17' E 166°26'0 0.0
2019-Oct-16 21:00S 22°17' E 166°26'0 0.0
2019-Oct-16 20:30S 22°17' E 166°26'0 0.0
2019-Oct-16 19:59S 22°17' E 166°26'0 0.0
2019-Oct-16 19:26S 22°17' E 166°26'0 0.0
2019-Oct-16 18:59S 22°17' E 166°26'0 0.0
2019-Oct-16 18:26S 22°17' E 166°26'0 0.0
2019-Oct-16 17:55S 22°17' E 166°26'0 0.0
2019-Oct-16 17:25S 22°17' E 166°26'0 0.0
2019-Oct-16 16:58S 22°17' E 166°26'0 0.0
2019-Oct-16 16:25S 22°17' E 166°26'0 0.0
2019-Oct-16 15:55S 22°17' E 166°26'0 0.0
2019-Oct-16 15:30S 22°17' E 166°26'0 0.0
2019-Oct-16 15:00S 22°17' E 166°26'0 0.0
2019-Oct-16 14:30S 22°17' E 166°26'0 0.0
2019-Oct-16 14:00S 22°17' E 166°26'0 0.0
2019-Oct-16 13:30S 22°17' E 166°26'0 0.0
2019-Oct-16 12:59S 22°17' E 166°26'0 0.0
2019-Oct-16 12:26S 22°17' E 166°26'0 0.0
2019-Oct-16 11:59S 22°17' E 166°26'0 0.0
2019-Oct-16 11:29S 22°17' E 166°26'0 0.0
2019-Oct-16 10:58S 22°17' E 166°26'0 0.0
2019-Oct-16 10:28S 22°17' E 166°26'0 0.0
2019-Oct-16 09:58S 22°17' E 166°26'0 0.0
2019-Oct-16 09:28S 22°17' E 166°26'0 0.0
2019-Oct-16 08:58S 22°17' E 166°26'0 0.0
2019-Oct-16 08:27S 22°17' E 166°26'0 0.0
2019-Oct-16 07:57S 22°17' E 166°26'0 0.0
2019-Oct-16 07:21S 22°17' E 166°26'0 0.0
2019-Oct-16 06:57S 22°17' E 166°26'0 0.0
2019-Oct-16 06:26S 22°17' E 166°26'0 0.0
2019-Oct-16 05:56S 22°17' E 166°26'0 0.0
2019-Oct-16 05:26S 22°17' E 166°26'0 0.0
2019-Oct-16 04:56S 22°17' E 166°26'0 0.0
2019-Oct-16 04:26S 22°17' E 166°26'0 0.0
2019-Oct-16 03:55S 22°17' E 166°26'0 0.0
2019-Oct-16 03:26S 22°17' E 166°26'1 1.7
2019-Oct-16 03:01S 22°17' E 166°26'2 4.0
2019-Oct-16 02:30S 22°19' E 166°26'3 5.0
2019-Oct-16 02:00S 22°20' E 166°28'3 5.1
2019-Oct-16 01:30S 22°20' E 166°31'2 4.9
2019-Oct-16 01:00S 22°20' E 166°34'2 3.5
2019-Oct-16 00:29S 22°20' E 166°36'0 0.9
2019-Oct-15 23:58S 22°20' E 166°36'2 5.0
2019-Oct-15 23:30S 22°22' E 166°36'3 3.4
2019-Oct-15 22:39S 22°25' E 166°37'1 3.9
2019-Oct-15 22:24S 22°26' E 166°36'2 0.2
2019-Oct-15 10:52S 22°24' E 166°36'2 4.3
2019-Oct-15 10:29S 22°23' E 166°35'0 0.6
2019-Oct-15 10:00S 22°22' E 166°35'3 4.8
2019-Oct-15 09:27S 22°22' E 166°38'2 3.0
2019-Oct-15 08:56S 22°24' E 166°39'2 4.5
2019-Oct-15 08:29S 22°24' E 166°37'2 4.6
2019-Oct-15 08:00S 22°24' E 166°34'2 2.8
2019-Oct-15 07:21S 22°24' E 166°36'2 4.7
2019-Oct-15 06:56S 22°24' E 166°38'2 1.4
2019-Oct-15 05:49S 22°25' E 166°36'0 0.2
2019-Oct-15 04:23S 22°25' E 166°37'0 0.0
2019-Oct-15 03:50S 22°25' E 166°37'2 3.1
2019-Oct-15 03:06S 22°26' E 166°34'0 5.0
2019-Oct-15 03:00S 22°26' E 166°34'2 0.1
2019-Oct-14 10:32S 22°26' E 166°37'0 2.0
2019-Oct-14 10:23S 22°26' E 166°37'2 2.4
2019-Oct-14 09:25S 22°28' E 166°38'3 1.0
2019-Oct-14 05:59S 22°25' E 166°36'0 0.5
2019-Oct-14 05:14S 22°25' E 166°36'0 0.4
2019-Oct-14 04:45S 22°25' E 166°36'0 0.4
2019-Oct-14 04:18S 22°25' E 166°36'0 0.4
2019-Oct-14 03:47S 22°25' E 166°37'2 4.9
2019-Oct-14 03:16S 22°27' E 166°38'4 1.1
2019-Oct-13 23:41S 22°31' E 166°39'7 1.2
2019-Oct-13 18:17S 22°25' E 166°36'1 4.2
2019-Oct-13 17:58S 22°24' E 166°36'2 4.3
2019-Oct-13 17:30S 22°22' E 166°34'2 4.6
2019-Oct-13 17:00S 22°21' E 166°32'2 4.6
2019-Oct-13 16:30S 22°20' E 166°30'1 2.2
2019-Oct-13 16:00S 22°21' E 166°30'1 2.4
2019-Oct-13 15:29S 22°22' E 166°29'1 2.4
2019-Oct-13 15:00S 22°23' E 166°29'1 2.4
2019-Oct-13 14:29S 22°23' E 166°28'1 2.3
2019-Oct-13 14:00S 22°25' E 166°28'3 4.8
2019-Oct-13 13:28S 22°27' E 166°27'2 1.7
2019-Oct-13 12:07S 22°27' E 166°30'0 0.3
2019-Oct-13 10:29S 22°27' E 166°29'2 0.3
2019-Oct-13 03:17S 22°27' E 166°27'1 4.3
2019-Oct-13 03:00S 22°26' E 166°26'2 2.9
2019-Oct-13 02:28S 22°28' E 166°26'2 5.3
2019-Oct-13 02:00S 22°26' E 166°24'3 5.5
2019-Oct-13 01:30S 22°24' E 166°22'3 5.7
2019-Oct-13 01:00S 22°22' E 166°20'3 5.3
2019-Oct-13 00:30S 22°21' E 166°17'2 3.3
2019-Oct-13 00:00S 22°21' E 166°15'2 4.6
2019-Oct-12 23:31S 22°20' E 166°13'2 3.5
2019-Oct-12 23:00S 22°22' E 166°14'2 4.6
2019-Oct-12 22:30S 22°23' E 166°17'1 2.0
2019-Oct-12 22:00S 22°22' E 166°16'2 3.7
2019-Oct-12 21:30S 22°21' E 166°16'1 2.5
2019-Oct-12 21:00S 22°22' E 166°17'1 1.9
2019-Oct-12 20:30S 22°21' E 166°18'1 2.7
2019-Oct-12 20:00S 22°21' E 166°19'1 1.8
2019-Oct-12 19:30S 22°20' E 166°20'1 1.9
2019-Oct-12 19:00S 22°20' E 166°21'1 1.9
2019-Oct-12 18:30S 22°20' E 166°22'1 1.4
2019-Oct-12 18:00S 22°21' E 166°23'1 1.6
2019-Oct-12 17:30S 22°21' E 166°23'1 1.8
2019-Oct-12 17:00S 22°22' E 166°24'1 1.9
2019-Oct-12 16:30S 22°22' E 166°25'1 2.0
2019-Oct-12 16:00S 22°22' E 166°26'1 2.0
2019-Oct-12 15:28S 22°22' E 166°27'1 2.0
2019-Oct-12 14:54S 22°22' E 166°29'1 1.8
2019-Oct-12 14:24S 22°22' E 166°30'1 2.0
2019-Oct-12 14:00S 22°22' E 166°30'1 1.8
2019-Oct-12 13:30S 22°22' E 166°31'1 2.0
2019-Oct-12 12:58S 22°22' E 166°33'2 3.9
2019-Oct-12 12:30S 22°23' E 166°34'2 3.4
2019-Oct-12 12:00S 22°23' E 166°36'2 3.8
2019-Oct-12 11:30S 22°25' E 166°37'2 3.8
2019-Oct-12 11:00S 22°27' E 166°37'2 2.5
2019-Oct-12 10:17S 22°25' E 166°37'2 4.7
2019-Oct-12 09:51S 22°23' E 166°36'1 1.5
2019-Oct-12 09:29S 22°23' E 166°35'2 4.0
2019-Oct-12 08:58S 22°25' E 166°36'2 4.2
2019-Oct-12 08:26S 22°27' E 166°36'3 1.2
2019-Oct-12 05:34S 22°24' E 166°36'0 4.5
2019-Oct-12 05:29S 22°23' E 166°36'1 1.7
2019-Oct-12 05:00S 22°24' E 166°37'1 3.0
2019-Oct-12 04:30S 22°25' E 166°37'12 3.0
2019-Oct-12 00:22S 22°32' E 166°26'13 1.3
2019-Oct-11 14:09S 22°24' E 166°37'1 3.9
2019-Oct-11 13:54S 22°23' E 166°38'3 4.9
2019-Oct-11 13:20S 22°23' E 166°34'1 4.2
2019-Oct-11 13:00S 22°22' E 166°36'6 5.7
2019-Oct-11 11:57S 22°28' E 166°37'3 1.8
2019-Oct-11 10:11S 22°25' E 166°37'2 5.8
2019-Oct-11 09:54S 22°23' E 166°36'0 1.1
2019-Oct-11 09:29S 22°23' E 166°36'3 5.8
2019-Oct-11 08:58S 22°26' E 166°37'2 1.0
2019-Oct-11 06:32S 22°24' E 166°36'0 5.3
2019-Oct-11 06:27S 22°23' E 166°36'0 0.9
2019-Oct-11 05:57S 22°23' E 166°36'2 3.7
2019-Oct-11 05:30S 22°25' E 166°36'0 0.7
2019-Oct-11 05:00S 22°25' E 166°37'3 4.6
2019-Oct-11 04:22S 22°28' E 166°38'4 1.7
2019-Oct-11 01:50S 22°24' E 166°36'0 1.0
2019-Oct-11 01:30S 22°24' E 166°36'3 5.2
2019-Oct-11 00:57S 22°27' E 166°37'3 1.2
2019-Oct-10 22:16S 22°24' E 166°36'0 1.7
2019-Oct-10 22:00S 22°23' E 166°36'2 4.5
2019-Oct-10 21:30S 22°25' E 166°37'2 2.1
2019-Oct-10 20:44S 22°27' E 166°37'4 1.6
2019-Oct-10 18:09S 22°23' E 166°35'1 5.3
2019-Oct-10 18:00S 22°22' E 166°36'3 5.2
2019-Oct-10 17:24S 22°20' E 166°38'2 4.5
2019-Oct-10 17:00S 22°22' E 166°38'3 5.2
2019-Oct-10 16:30S 22°24' E 166°37'6 5.1
2019-Oct-10 15:25S 22°30' E 166°36'5 3.3
2019-Oct-10 13:45S 22°24' E 166°37'1 5.1
2019-Oct-10 13:30S 22°23' E 166°37'3 5.0
2019-Oct-10 12:59S 22°21' E 166°38'1 1.5
2019-Oct-10 12:30S 22°21' E 166°37'2 4.9
2019-Oct-10 11:59S 22°24' E 166°37'3 4.8
2019-Oct-10 11:24S 22°26' E 166°36'4 4.8
2019-Oct-10 10:34S 22°30' E 166°35'7 4.1
2019-Oct-10 08:57S 22°24' E 166°36'2 5.3
2019-Oct-10 08:29S 22°21' E 166°37'1 1.4
2019-Oct-10 07:58S 22°21' E 166°38'3 5.3
2019-Oct-10 07:29S 22°23' E 166°37'3 5.2
2019-Oct-10 06:58S 22°26' E 166°36'10 0.8
2019-Oct-09 18:44S 22°29' E 166°26'2 4.6
2019-Oct-09 18:19S 22°27' E 166°27'2 5.1
2019-Oct-09 17:59S 22°26' E 166°28'3 5.1
2019-Oct-09 17:28S 22°23' E 166°29'2 5.1
2019-Oct-09 17:00S 22°21' E 166°30'3 5.1
2019-Oct-09 16:30S 22°19' E 166°31'0 0.8
2019-Oct-09 16:00S 22°19' E 166°31'2 4.5
2019-Oct-09 15:30S 22°21' E 166°30'3 5.0
2019-Oct-09 15:00S 22°23' E 166°29'3 5.0
2019-Oct-09 14:30S 22°26' E 166°27'3 5.0
2019-Oct-09 13:57S 22°28' E 166°26'4 4.0
2019-Oct-09 13:03S 22°25' E 166°28'0 5.3
2019-Oct-09 13:00S 22°25' E 166°28'3 5.1
2019-Oct-09 12:29S 22°22' E 166°29'2 5.0
2019-Oct-09 11:59S 22°20' E 166°30'1 3.1
2019-Oct-09 11:30S 22°18' E 166°31'3 5.5
2019-Oct-09 11:00S 22°21' E 166°30'3 5.6
2019-Oct-09 10:30S 22°24' E 166°28'3 5.5
2019-Oct-09 10:00S 22°26' E 166°27'3 5.4
2019-Oct-09 09:30S 22°29' E 166°26'3 4.1
2019-Oct-09 08:42S 22°26' E 166°28'1 5.3
2019-Oct-09 08:25S 22°24' E 166°28'2 5.4
2019-Oct-09 08:00S 22°22' E 166°29'3 5.5
2019-Oct-09 07:30S 22°20' E 166°30'1 2.4
2019-Oct-09 06:59S 22°19' E 166°31'3 5.2
2019-Oct-09 06:30S 22°21' E 166°30'3 5.1
2019-Oct-09 05:59S 22°23' E 166°29'3 5.0
2019-Oct-09 05:29S 22°26' E 166°28'3 5.0
2019-Oct-09 04:57S 22°28' E 166°27'2 4.4
2019-Oct-09 04:30S 22°30' E 166°26'3 5.0
2019-Oct-09 03:50S 22°33' E 166°25'5 1.7
2019-Oct-09 01:09S 22°29' E 166°26'2 4.8
2019-Oct-09 00:44S 22°27' E 166°27'3 4.8
2019-Oct-09 00:12S 22°24' E 166°28'1 4.7
2019-Oct-09 00:00S 22°24' E 166°28'2 4.8
2019-Oct-08 23:30S 22°21' E 166°29'2 4.8
2019-Oct-08 23:00S 22°19' E 166°30'1 1.4
2019-Oct-08 22:30S 22°18' E 166°31'3 6.4
2019-Oct-08 22:00S 22°20' E 166°27'3 6.5
2019-Oct-08 21:30S 22°17' E 166°25'1 2.4
2019-Oct-08 20:57S 22°17' E 166°26'0 0.0
2019-Oct-08 20:29S 22°17' E 166°26'0 0.0
2019-Oct-08 19:56S 22°17' E 166°26'0 0.0
2019-Oct-08 19:29S 22°17' E 166°26'0 0.0
2019-Oct-08 18:56S 22°17' E 166°26'0 0.0
2019-Oct-08 18:26S 22°17' E 166°26'0 0.0
2019-Oct-08 17:58S 22°17' E 166°26'0 0.0
2019-Oct-08 17:28S 22°17' E 166°26'0 0.0
2019-Oct-08 16:55S 22°17' E 166°26'0 0.0
2019-Oct-08 16:22S 22°17' E 166°26'0 0.0
2019-Oct-08 15:55S 22°17' E 166°26'0 0.0
2019-Oct-08 15:18S 22°17' E 166°26'0 0.0
2019-Oct-08 15:00S 22°17' E 166°26'0 0.0
2019-Oct-08 14:30S 22°17' E 166°26'0 0.0
2019-Oct-08 13:42S 22°17' E 166°26'0 0.0
2019-Oct-08 13:29S 22°17' E 166°26'0 0.0
2019-Oct-08 12:59S 22°17' E 166°26'0 0.0
2019-Oct-08 12:29S 22°17' E 166°26'0 0.0
2019-Oct-08 11:59S 22°17' E 166°26'0 0.0
2019-Oct-08 11:23S 22°17' E 166°26'0 0.0
2019-Oct-08 10:58S 22°17' E 166°26'0 0.0
2019-Oct-08 10:25S 22°17' E 166°26'0 0.0
2019-Oct-08 09:52S 22°17' E 166°26'0 0.0
2019-Oct-08 09:28S 22°17' E 166°26'0 0.0
2019-Oct-08 08:58S 22°17' E 166°26'0 0.0
2019-Oct-08 08:27S 22°17' E 166°26'0 0.0
2019-Oct-08 08:00S 22°17' E 166°26'0 0.0
2019-Oct-08 07:30S 22°17' E 166°26'0 0.0
2019-Oct-08 07:00S 22°17' E 166°26'0 0.2
2019-Oct-08 06:30S 22°17' E 166°26'2 4.7
2019-Oct-08 06:01S 22°17' E 166°24'2 4.2
2019-Oct-08 05:30S 22°15' E 166°24'1 1.9
2019-Oct-08 05:00S 22°15' E 166°25'0 0.0
2019-Oct-08 04:31S 22°15' E 166°25'0 0.0
2019-Oct-08 04:00S 22°15' E 166°25'0 0.0
2019-Oct-08 03:31S 22°15' E 166°25'0 0.0
2019-Oct-08 03:01S 22°15' E 166°25'0 0.0
2019-Oct-08 02:30S 22°15' E 166°25'0 0.1
2019-Oct-08 02:01S 22°15' E 166°25'0 0.0
2019-Oct-08 01:30S 22°15' E 166°25'0 0.0
2019-Oct-08 01:01S 22°15' E 166°25'0 0.0
2019-Oct-08 00:23S 22°15' E 166°25'0 0.0
2019-Oct-07 23:59S 22°15' E 166°25'0 0.0
2019-Oct-07 23:29S 22°15' E 166°25'0 0.0
2019-Oct-07 22:53S 22°15' E 166°25'0 0.0
2019-Oct-07 22:28S 22°15' E 166°25'0 0.0
2019-Oct-07 21:55S 22°15' E 166°25'0 0.0
2019-Oct-07 21:25S 22°15' E 166°25'0 0.0
2019-Oct-07 21:00S 22°15' E 166°25'1 2.4
2019-Oct-07 20:30S 22°15' E 166°23'2 3.7
2019-Oct-07 20:00S 22°16' E 166°23'2 3.8
2019-Oct-07 19:30S 22°18' E 166°25'2 3.4
2019-Oct-07 19:00S 22°19' E 166°26'1 2.9
2019-Oct-07 18:30S 22°20' E 166°27'1 2.7
2019-Oct-07 18:00S 22°20' E 166°29'1 2.7
2019-Oct-07 17:30S 22°21' E 166°30'2 3.0
2019-Oct-07 17:00S 22°21' E 166°31'2 4.3
2019-Oct-07 16:29S 22°22' E 166°34'2 4.5
2019-Oct-07 16:00S 22°23' E 166°36'  
Track history (hours):
 
Tides and Currents Weather Stations Pressure Air Temp Water Temp Dewpoint Dewpoint Depression Visibility Wind Speed Wind Dir Waves Ship Positions

Oceanographic research ship Alis (France)

Detailed information on ship capabilities available from University of Delaware's Ocean Information Center.

Last reported at 2019-Oct-17 04:06 UTC. Time now 2019-Oct-17 17:39 UTC.
Position S 22°17' E 166°26'.

Length 27 m; beam 8 m.

Type: . MMSI: 227226000.

Date/timePositionNaut miles runAvg speedWind from/ knotsBaromVisibWave heightAir tempDewpointWater temp
2019-Oct-17 04:06S 22°17' E 166°26'0 0.0
2019-Oct-17 04:00S 22°17' E 166°26'0 0.0
2019-Oct-17 03:30S 22°17' E 166°26'0 0.0
2019-Oct-17 02:53S 22°17' E 166°26'0 0.0
2019-Oct-17 02:29S 22°17' E 166°26'0 0.0
2019-Oct-17 01:59S 22°17' E 166°26'0 0.0
2019-Oct-17 01:29S 22°17' E 166°26'0 0.0
2019-Oct-17 00:58S 22°17' E 166°26'0 0.0
2019-Oct-17 00:28S 22°17' E 166°26'0 0.0
2019-Oct-16 23:58S 22°17' E 166°26'0 0.0
2019-Oct-16 23:28S 22°17' E 166°26'0 0.0
2019-Oct-16 22:58S 22°17' E 166°26'0 0.0
2019-Oct-16 22:30S 22°17' E 166°26'0 0.0
2019-Oct-16 21:54S 22°17' E 166°26'0 0.0
2019-Oct-16 21:30S 22°17' E 166°26'0 0.0
2019-Oct-16 21:00S 22°17' E 166°26'0 0.0
2019-Oct-16 20:30S 22°17' E 166°26'0 0.0
2019-Oct-16 19:59S 22°17' E 166°26'0 0.0
2019-Oct-16 19:26S 22°17' E 166°26'0 0.0
2019-Oct-16 18:59S 22°17' E 166°26'0 0.0
2019-Oct-16 18:26S 22°17' E 166°26'0 0.0
2019-Oct-16 17:55S 22°17' E 166°26'0 0.0
2019-Oct-16 17:25S 22°17' E 166°26'0 0.0
2019-Oct-16 16:58S 22°17' E 166°26'0 0.0
2019-Oct-16 16:25S 22°17' E 166°26'0 0.0
2019-Oct-16 15:55S 22°17' E 166°26'0 0.0
2019-Oct-16 15:30S 22°17' E 166°26'0 0.0
2019-Oct-16 15:00S 22°17' E 166°26'0 0.0
2019-Oct-16 14:30S 22°17' E 166°26'0 0.0
2019-Oct-16 14:00S 22°17' E 166°26'0 0.0
2019-Oct-16 13:30S 22°17' E 166°26'0 0.0
2019-Oct-16 12:59S 22°17' E 166°26'0 0.0
2019-Oct-16 12:26S 22°17' E 166°26'0 0.0
2019-Oct-16 11:59S 22°17' E 166°26'0 0.0
2019-Oct-16 11:29S 22°17' E 166°26'0 0.0
2019-Oct-16 10:58S 22°17' E 166°26'0 0.0
2019-Oct-16 10:28S 22°17' E 166°26'0 0.0
2019-Oct-16 09:58S 22°17' E 166°26'0 0.0
2019-Oct-16 09:28S 22°17' E 166°26'0 0.0
2019-Oct-16 08:58S 22°17' E 166°26'0 0.0
2019-Oct-16 08:27S 22°17' E 166°26'0 0.0
2019-Oct-16 07:57S 22°17' E 166°26'0 0.0
2019-Oct-16 07:21S 22°17' E 166°26'0 0.0
2019-Oct-16 06:57S 22°17' E 166°26'0 0.0
2019-Oct-16 06:26S 22°17' E 166°26'0 0.0
2019-Oct-16 05:56S 22°17' E 166°26'0 0.0
2019-Oct-16 05:26S 22°17' E 166°26'0 0.0
2019-Oct-16 04:56S 22°17' E 166°26'0 0.0
2019-Oct-16 04:26S 22°17' E 166°26'0 0.0
2019-Oct-16 03:55S 22°17' E 166°26'0 0.0
2019-Oct-16 03:26S 22°17' E 166°26'1 1.7
2019-Oct-16 03:01S 22°17' E 166°26'2 4.0
2019-Oct-16 02:30S 22°19' E 166°26'3 5.0
2019-Oct-16 02:00S 22°20' E 166°28'3 5.1
2019-Oct-16 01:30S 22°20' E 166°31'2 4.9
2019-Oct-16 01:00S 22°20' E 166°34'2 3.5
2019-Oct-16 00:29S 22°20' E 166°36'0 0.9
2019-Oct-15 23:58S 22°20' E 166°36'2 5.0
2019-Oct-15 23:30S 22°22' E 166°36'3 3.4
2019-Oct-15 22:39S 22°25' E 166°37'1 3.9
2019-Oct-15 22:24S 22°26' E 166°36'2 0.2
2019-Oct-15 10:52S 22°24' E 166°36'2 4.3
2019-Oct-15 10:29S 22°23' E 166°35'0 0.6
2019-Oct-15 10:00S 22°22' E 166°35'3 4.8
2019-Oct-15 09:27S 22°22' E 166°38'2 3.0
2019-Oct-15 08:56S 22°24' E 166°39'2 4.5
2019-Oct-15 08:29S 22°24' E 166°37'2 4.6
2019-Oct-15 08:00S 22°24' E 166°34'2 2.8
2019-Oct-15 07:21S 22°24' E 166°36'2 4.7
2019-Oct-15 06:56S 22°24' E 166°38'2 1.4
2019-Oct-15 05:49S 22°25' E 166°36'0 0.2
2019-Oct-15 04:23S 22°25' E 166°37'0 0.0
2019-Oct-15 03:50S 22°25' E 166°37'2 3.1
2019-Oct-15 03:06S 22°26' E 166°34'0 5.0
2019-Oct-15 03:00S 22°26' E 166°34'2 0.1
2019-Oct-14 10:32S 22°26' E 166°37'0 2.0
2019-Oct-14 10:23S 22°26' E 166°37'2 2.4
2019-Oct-14 09:25S 22°28' E 166°38'3 1.0
2019-Oct-14 05:59S 22°25' E 166°36'0 0.5
2019-Oct-14 05:14S 22°25' E 166°36'0 0.4
2019-Oct-14 04:45S 22°25' E 166°36'0 0.4
2019-Oct-14 04:18S 22°25' E 166°36'0 0.4
2019-Oct-14 03:47S 22°25' E 166°37'2 4.9
2019-Oct-14 03:16S 22°27' E 166°38'4 1.1
2019-Oct-13 23:41S 22°31' E 166°39'7 1.2
2019-Oct-13 18:17S 22°25' E 166°36'1 4.2
2019-Oct-13 17:58S 22°24' E 166°36'2 4.3
2019-Oct-13 17:30S 22°22' E 166°34'2 4.6
2019-Oct-13 17:00S 22°21' E 166°32'2 4.6
2019-Oct-13 16:30S 22°20' E 166°30'1 2.2
2019-Oct-13 16:00S 22°21' E 166°30'1 2.4
2019-Oct-13 15:29S 22°22' E 166°29'1 2.4
2019-Oct-13 15:00S 22°23' E 166°29'1 2.4
2019-Oct-13 14:29S 22°23' E 166°28'1 2.3
2019-Oct-13 14:00S 22°25' E 166°28'3 4.8
2019-Oct-13 13:28S 22°27' E 166°27'2 1.7
2019-Oct-13 12:07S 22°27' E 166°30'0 0.3
2019-Oct-13 10:29S 22°27' E 166°29'2 0.3
2019-Oct-13 03:17S 22°27' E 166°27'1 4.3
2019-Oct-13 03:00S 22°26' E 166°26'2 2.9
2019-Oct-13 02:28S 22°28' E 166°26'2 5.3
2019-Oct-13 02:00S 22°26' E 166°24'3 5.5
2019-Oct-13 01:30S 22°24' E 166°22'3 5.7
2019-Oct-13 01:00S 22°22' E 166°20'3 5.3
2019-Oct-13 00:30S 22°21' E 166°17'2 3.3
2019-Oct-13 00:00S 22°21' E 166°15'2 4.6
2019-Oct-12 23:31S 22°20' E 166°13'2 3.5
2019-Oct-12 23:00S 22°22' E 166°14'2 4.6
2019-Oct-12 22:30S 22°23' E 166°17'1 2.0
2019-Oct-12 22:00S 22°22' E 166°16'2 3.7
2019-Oct-12 21:30S 22°21' E 166°16'1 2.5
2019-Oct-12 21:00S 22°22' E 166°17'1 1.9
2019-Oct-12 20:30S 22°21' E 166°18'1 2.7
2019-Oct-12 20:00S 22°21' E 166°19'1 1.8
2019-Oct-12 19:30S 22°20' E 166°20'1 1.9
2019-Oct-12 19:00S 22°20' E 166°21'1 1.9
2019-Oct-12 18:30S 22°20' E 166°22'1 1.4
2019-Oct-12 18:00S 22°21' E 166°23'1 1.6
2019-Oct-12 17:30S 22°21' E 166°23'1 1.8
2019-Oct-12 17:00S 22°22' E 166°24'1 1.9
2019-Oct-12 16:30S 22°22' E 166°25'1 2.0
2019-Oct-12 16:00S 22°22' E 166°26'1 2.0
2019-Oct-12 15:28S 22°22' E 166°27'1 2.0
2019-Oct-12 14:54S 22°22' E 166°29'1 1.8
2019-Oct-12 14:24S 22°22' E 166°30'1 2.0
2019-Oct-12 14:00S 22°22' E 166°30'1 1.8
2019-Oct-12 13:30S 22°22' E 166°31'1 2.0
2019-Oct-12 12:58S 22°22' E 166°33'2 3.9
2019-Oct-12 12:30S 22°23' E 166°34'2 3.4
2019-Oct-12 12:00S 22°23' E 166°36'2 3.8
2019-Oct-12 11:30S 22°25' E 166°37'2 3.8
2019-Oct-12 11:00S 22°27' E 166°37'2 2.5
2019-Oct-12 10:17S 22°25' E 166°37'2 4.7
2019-Oct-12 09:51S 22°23' E 166°36'1 1.5
2019-Oct-12 09:29S 22°23' E 166°35'2 4.0
2019-Oct-12 08:58S 22°25' E 166°36'2 4.2
2019-Oct-12 08:26S 22°27' E 166°36'3 1.2
2019-Oct-12 05:34S 22°24' E 166°36'0 4.5
2019-Oct-12 05:29S 22°23' E 166°36'1 1.7
2019-Oct-12 05:00S 22°24' E 166°37'1 3.0
2019-Oct-12 04:30S 22°25' E 166°37'12 3.0
2019-Oct-12 00:22S 22°32' E 166°26'13 1.3
2019-Oct-11 14:09S 22°24' E 166°37'1 3.9
2019-Oct-11 13:54S 22°23' E 166°38'3 4.9
2019-Oct-11 13:20S 22°23' E 166°34'1 4.2
2019-Oct-11 13:00S 22°22' E 166°36'6 5.7
2019-Oct-11 11:57S 22°28' E 166°37'3 1.8
2019-Oct-11 10:11S 22°25' E 166°37'2 5.8
2019-Oct-11 09:54S 22°23' E 166°36'0 1.1
2019-Oct-11 09:29S 22°23' E 166°36'3 5.8
2019-Oct-11 08:58S 22°26' E 166°37'2 1.0
2019-Oct-11 06:32S 22°24' E 166°36'0 5.3
2019-Oct-11 06:27S 22°23' E 166°36'0 0.9
2019-Oct-11 05:57S 22°23' E 166°36'2 3.7
2019-Oct-11 05:30S 22°25' E 166°36'0 0.7
2019-Oct-11 05:00S 22°25' E 166°37'3 4.6
2019-Oct-11 04:22S 22°28' E 166°38'4 1.7
2019-Oct-11 01:50S 22°24' E 166°36'0 1.0
2019-Oct-11 01:30S 22°24' E 166°36'3 5.2
2019-Oct-11 00:57S 22°27' E 166°37'3 1.2
2019-Oct-10 22:16S 22°24' E 166°36'0 1.7
2019-Oct-10 22:00S 22°23' E 166°36'2 4.5
2019-Oct-10 21:30S 22°25' E 166°37'2 2.1
2019-Oct-10 20:44S 22°27' E 166°37'4 1.6
2019-Oct-10 18:09S 22°23' E 166°35'1 5.3
2019-Oct-10 18:00S 22°22' E 166°36'3 5.2
2019-Oct-10 17:24S 22°20' E 166°38'2 4.5
2019-Oct-10 17:00S 22°22' E 166°38'3 5.2
2019-Oct-10 16:30S 22°24' E 166°37'6 5.1
2019-Oct-10 15:25S 22°30' E 166°36'5 3.3
2019-Oct-10 13:45S 22°24' E 166°37'1 5.1
2019-Oct-10 13:30S 22°23' E 166°37'3 5.0
2019-Oct-10 12:59S 22°21' E 166°38'1 1.5
2019-Oct-10 12:30S 22°21' E 166°37'2 4.9
2019-Oct-10 11:59S 22°24' E 166°37'3 4.8
2019-Oct-10 11:24S 22°26' E 166°36'4 4.8
2019-Oct-10 10:34S 22°30' E 166°35'7 4.1
2019-Oct-10 08:57S 22°24' E 166°36'2 5.3
2019-Oct-10 08:29S 22°21' E 166°37'1 1.4
2019-Oct-10 07:58S 22°21' E 166°38'3 5.3
2019-Oct-10 07:29S 22°23' E 166°37'3 5.2
2019-Oct-10 06:58S 22°26' E 166°36'10 0.8
2019-Oct-09 18:44S 22°29' E 166°26'2 4.6
2019-Oct-09 18:19S 22°27' E 166°27'2 5.1
2019-Oct-09 17:59S 22°26' E 166°28'3 5.1
2019-Oct-09 17:28S 22°23' E 166°29'2 5.1
2019-Oct-09 17:00S 22°21' E 166°30'3 5.1
2019-Oct-09 16:30S 22°19' E 166°31'0 0.8
2019-Oct-09 16:00S 22°19' E 166°31'2 4.5
2019-Oct-09 15:30S 22°21' E 166°30'3 5.0
2019-Oct-09 15:00S 22°23' E 166°29'3 5.0
2019-Oct-09 14:30S 22°26' E 166°27'3 5.0
2019-Oct-09 13:57S 22°28' E 166°26'4 4.0
2019-Oct-09 13:03S 22°25' E 166°28'0 5.3
2019-Oct-09 13:00S 22°25' E 166°28'3 5.1
2019-Oct-09 12:29S 22°22' E 166°29'2 5.0
2019-Oct-09 11:59S 22°20' E 166°30'1 3.1
2019-Oct-09 11:30S 22°18' E 166°31'3 5.5
2019-Oct-09 11:00S 22°21' E 166°30'3 5.6
2019-Oct-09 10:30S 22°24' E 166°28'3 5.5
2019-Oct-09 10:00S 22°26' E 166°27'3 5.4
2019-Oct-09 09:30S 22°29' E 166°26'3 4.1
2019-Oct-09 08:42S 22°26' E 166°28'1 5.3
2019-Oct-09 08:25S 22°24' E 166°28'2 5.4
2019-Oct-09 08:00S 22°22' E 166°29'3 5.5
2019-Oct-09 07:30S 22°20' E 166°30'1 2.4
2019-Oct-09 06:59S 22°19' E 166°31'3 5.2
2019-Oct-09 06:30S 22°21' E 166°30'3 5.1
2019-Oct-09 05:59S 22°23' E 166°29'3 5.0
2019-Oct-09 05:29S 22°26' E 166°28'3 5.0
2019-Oct-09 04:57S 22°28' E 166°27'2 4.4
2019-Oct-09 04:30S 22°30' E 166°26'3 5.0
2019-Oct-09 03:50S 22°33' E 166°25'5 1.7
2019-Oct-09 01:09S 22°29' E 166°26'2 4.8
2019-Oct-09 00:44S 22°27' E 166°27'3 4.8
2019-Oct-09 00:12S 22°24' E 166°28'1 4.7
2019-Oct-09 00:00S 22°24' E 166°28'2 4.8
2019-Oct-08 23:30S 22°21' E 166°29'2 4.8
2019-Oct-08 23:00S 22°19' E 166°30'1 1.4
2019-Oct-08 22:30S 22°18' E 166°31'3 6.4
2019-Oct-08 22:00S 22°20' E 166°27'3 6.5
2019-Oct-08 21:30S 22°17' E 166°25'1 2.4
2019-Oct-08 20:57S 22°17' E 166°26'0 0.0
2019-Oct-08 20:29S 22°17' E 166°26'0 0.0
2019-Oct-08 19:56S 22°17' E 166°26'0 0.0
2019-Oct-08 19:29S 22°17' E 166°26'0 0.0
2019-Oct-08 18:56S 22°17' E 166°26'0 0.0
2019-Oct-08 18:26S 22°17' E 166°26'0 0.0
2019-Oct-08 17:58S 22°17' E 166°26'0 0.0
2019-Oct-08 17:28S 22°17' E 166°26'0 0.0
2019-Oct-08 16:55S 22°17' E 166°26'0 0.0
2019-Oct-08 16:22S 22°17' E 166°26'0 0.0
2019-Oct-08 15:55S 22°17' E 166°26'0 0.0
2019-Oct-08 15:18S 22°17' E 166°26'0 0.0
2019-Oct-08 15:00S 22°17' E 166°26'0 0.0
2019-Oct-08 14:30S 22°17' E 166°26'0 0.0
2019-Oct-08 13:42S 22°17' E 166°26'0 0.0
2019-Oct-08 13:29S 22°17' E 166°26'0 0.0
2019-Oct-08 12:59S 22°17' E 166°26'0 0.0
2019-Oct-08 12:29S 22°17' E 166°26'0 0.0
2019-Oct-08 11:59S 22°17' E 166°26'0 0.0
2019-Oct-08 11:23S 22°17' E 166°26'0 0.0
2019-Oct-08 10:58S 22°17' E 166°26'0 0.0
2019-Oct-08 10:25S 22°17' E 166°26'0 0.0
2019-Oct-08 09:52S 22°17' E 166°26'0 0.0
2019-Oct-08 09:28S 22°17' E 166°26'0 0.0
2019-Oct-08 08:58S 22°17' E 166°26'0 0.0
2019-Oct-08 08:27S 22°17' E 166°26'0 0.0
2019-Oct-08 08:00S 22°17' E 166°26'0 0.0
2019-Oct-08 07:30S 22°17' E 166°26'0 0.0
2019-Oct-08 07:00S 22°17' E 166°26'0 0.2
2019-Oct-08 06:30S 22°17' E 166°26'2 4.7
2019-Oct-08 06:01S 22°17' E 166°24'2 4.2
2019-Oct-08 05:30S 22°15' E 166°24'1 1.9
2019-Oct-08 05:00S 22°15' E 166°25'0 0.0
2019-Oct-08 04:31S 22°15' E 166°25'0 0.0
2019-Oct-08 04:00S 22°15' E 166°25'0 0.0
2019-Oct-08 03:31S 22°15' E 166°25'0 0.0
2019-Oct-08 03:01S 22°15' E 166°25'0 0.0
2019-Oct-08 02:30S 22°15' E 166°25'0 0.1
2019-Oct-08 02:01S 22°15' E 166°25'0 0.0
2019-Oct-08 01:30S 22°15' E 166°25'0 0.0
2019-Oct-08 01:01S 22°15' E 166°25'0 0.0
2019-Oct-08 00:23S 22°15' E 166°25'0 0.0
2019-Oct-07 23:59S 22°15' E 166°25'0 0.0
2019-Oct-07 23:29S 22°15' E 166°25'0 0.0
2019-Oct-07 22:53S 22°15' E 166°25'0 0.0
2019-Oct-07 22:28S 22°15' E 166°25'0 0.0
2019-Oct-07 21:55S 22°15' E 166°25'0 0.0
2019-Oct-07 21:25S 22°15' E 166°25'0 0.0
2019-Oct-07 21:00S 22°15' E 166°25'1 2.4
2019-Oct-07 20:30S 22°15' E 166°23'2 3.7
2019-Oct-07 20:00S 22°16' E 166°23'2 3.8
2019-Oct-07 19:30S 22°18' E 166°25'2 3.4
2019-Oct-07 19:00S 22°19' E 166°26'1 2.9
2019-Oct-07 18:30S 22°20' E 166°27'1 2.7
2019-Oct-07 18:00S 22°20' E 166°29'1 2.7
2019-Oct-07 17:30S 22°21' E 166°30'2 3.0
2019-Oct-07 17:00S 22°21' E 166°31'2 4.3
2019-Oct-07 16:29S 22°22' E 166°34'2 4.5
2019-Oct-07 16:00S 22°23' E 166°36'  

Dump ship's entire track history